sim
Sign-in with your pilot id or email,
or register
Callsign
Passwort

Schedule Details

Flight Number: DLH2467
Departure: Helsinki Vantaa Airport (EFHK) at 03:55
Arrival: Munich Airport (EDDM) at 06:35
Route: Lufthansa Passenger Schedule. Enter filed route here before submitting Pirep.

Weather Information
Getting current METAR information for EFHK 250850Z 21004KT 9999 BKN007 15/14 Q1008 NOSIG
Getting current METAR information for EDDM 250850Z 28010KT 250V310 9999 -RA FEW018 SCT030 BKN045 10/08 Q1003 RERA NOSIG

Schedule Frequency

Route Map